sensor_id;sensor_type;location;lat;lon;timestamp;temperature;humidity
69324;DHT22;56470;47.350;8.718;2022-12-26T00:01:23;7.86;87.74
69324;DHT22;56470;47.350;8.718;2022-12-26T00:03:49;7.88;88.01
69324;DHT22;56470;47.350;8.718;2022-12-26T00:06:20;7.84;87.30
69324;DHT22;56470;47.350;8.718;2022-12-26T00:08:46;7.76;87.38
69324;DHT22;56470;47.350;8.718;2022-12-26T00:11:12;7.71;87.17
69324;DHT22;56470;47.350;8.718;2022-12-26T00:13:38;7.63;87.58
69324;DHT22;56470;47.350;8.718;2022-12-26T00:18:32;7.59;87.43
69324;DHT22;56470;47.350;8.718;2022-12-26T00:20:57;7.56;87.71
69324;DHT22;56470;47.350;8.718;2022-12-26T00:23:23;7.62;87.83
69324;DHT22;56470;47.350;8.718;2022-12-26T00:25:48;7.63;87.69
69324;DHT22;56470;47.350;8.718;2022-12-26T00:28:13;7.62;87.64
69324;DHT22;56470;47.350;8.718;2022-12-26T00:30:39;7.55;87.25
69324;DHT22;56470;47.350;8.718;2022-12-26T00:33:04;7.53;87.14
69324;DHT22;56470;47.350;8.718;2022-12-26T00:35:29;7.50;87.29
69324;DHT22;56470;47.350;8.718;2022-12-26T00:37:55;7.52;87.58
69324;DHT22;56470;47.350;8.718;2022-12-26T00:40:20;7.56;87.78
69324;DHT22;56470;47.350;8.718;2022-12-26T00:42:45;7.50;87.41
69324;DHT22;56470;47.350;8.718;2022-12-26T00:45:11;7.45;87.29
69324;DHT22;56470;47.350;8.718;2022-12-26T00:47:36;7.39;87.46
69324;DHT22;56470;47.350;8.718;2022-12-26T00:50:01;7.36;87.61
69324;DHT22;56470;47.350;8.718;2022-12-26T00:52:27;7.31;87.47
69324;DHT22;56470;47.350;8.718;2022-12-26T00:54:52;7.35;87.67
69324;DHT22;56470;47.350;8.718;2022-12-26T00:57:17;7.25;87.26
69324;DHT22;56470;47.350;8.718;2022-12-26T00:59:43;7.14;87.55
69324;DHT22;56470;47.350;8.718;2022-12-26T01:02:08;7.08;87.73
69324;DHT22;56470;47.350;8.718;2022-12-26T01:04:53;6.97;87.48
69324;DHT22;56470;47.350;8.718;2022-12-26T01:07:18;6.94;87.82
69324;DHT22;56470;47.350;8.718;2022-12-26T01:09:44;6.97;87.99
69324;DHT22;56470;47.350;8.718;2022-12-26T01:12:09;6.97;87.18
69324;DHT22;56470;47.350;8.718;2022-12-26T01:14:34;6.87;87.43
69324;DHT22;56470;47.350;8.718;2022-12-26T01:17:00;6.87;87.52
69324;DHT22;56470;47.350;8.718;2022-12-26T01:19:27;6.88;87.06
69324;DHT22;56470;47.350;8.718;2022-12-26T01:21:52;6.90;87.63
69324;DHT22;56470;47.350;8.718;2022-12-26T01:24:17;6.96;87.67
69324;DHT22;56470;47.350;8.718;2022-12-26T01:26:42;6.97;87.21
69324;DHT22;56470;47.350;8.718;2022-12-26T01:29:08;6.94;86.78
69324;DHT22;56470;47.350;8.718;2022-12-26T01:31:33;6.87;86.51
69324;DHT22;56470;47.350;8.718;2022-12-26T01:33:59;6.83;86.63
69324;DHT22;56470;47.350;8.718;2022-12-26T01:36:24;6.76;86.42
69324;DHT22;56470;47.350;8.718;2022-12-26T01:38:49;6.69;86.32
69324;DHT22;56470;47.350;8.718;2022-12-26T01:41:15;6.66;86.58
69324;DHT22;56470;47.350;8.718;2022-12-26T01:47:03;6.66;87.03
69324;DHT22;56470;47.350;8.718;2022-12-26T01:49:36;6.72;86.79
69324;DHT22;56470;47.350;8.718;2022-12-26T01:52:09;6.76;86.88
69324;DHT22;56470;47.350;8.718;2022-12-26T01:54:37;6.75;86.71
69324;DHT22;56470;47.350;8.718;2022-12-26T01:57:07;6.79;86.51
69324;DHT22;56470;47.350;8.718;2022-12-26T01:59:35;6.83;86.66
69324;DHT22;56470;47.350;8.718;2022-12-26T02:02:02;6.84;86.51
69324;DHT22;56470;47.350;8.718;2022-12-26T02:04:33;6.88;86.57
69324;DHT22;56470;47.350;8.718;2022-12-26T02:07:19;6.88;86.38
69324;DHT22;56470;47.350;8.718;2022-12-26T02:09:44;6.88;85.82
69324;DHT22;56470;47.350;8.718;2022-12-26T02:12:14;6.86;85.86
69324;DHT22;56470;47.350;8.718;2022-12-26T02:14:40;6.72;84.62
69324;DHT22;56470;47.350;8.718;2022-12-26T02:17:06;6.62;85.27
69324;DHT22;56470;47.350;8.718;2022-12-26T02:20:10;6.57;85.89
69324;DHT22;56470;47.350;8.718;2022-12-26T02:44:17;6.67;85.83
69324;DHT22;56470;47.350;8.718;2022-12-26T02:53:44;6.77;86.10
69324;DHT22;56470;47.350;8.718;2022-12-26T02:56:33;6.81;86.09
69324;DHT22;56470;47.350;8.718;2022-12-26T03:05:35;6.98;86.23
69324;DHT22;56470;47.350;8.718;2022-12-26T03:08:29;7.04;86.10
69324;DHT22;56470;47.350;8.718;2022-12-26T03:11:14;7.08;86.23
69324;DHT22;56470;47.350;8.718;2022-12-26T03:14:14;7.09;85.88
69324;DHT22;56470;47.350;8.718;2022-12-26T03:16:42;7.12;86.00
69324;DHT22;56470;47.350;8.718;2022-12-26T03:19:31;7.18;85.76
69324;DHT22;56470;47.350;8.718;2022-12-26T03:21:59;7.21;86.10
69324;DHT22;56470;47.350;8.718;2022-12-26T03:24:26;7.25;85.84
69324;DHT22;56470;47.350;8.718;2022-12-26T03:27:12;7.29;85.77
69324;DHT22;56470;47.350;8.718;2022-12-26T03:29:37;7.31;85.47
69324;DHT22;56470;47.350;8.718;2022-12-26T03:32:21;7.31;84.97
69324;DHT22;56470;47.350;8.718;2022-12-26T03:34:46;7.29;85.31
69324;DHT22;56470;47.350;8.718;2022-12-26T03:37:26;7.33;85.42
69324;DHT22;56470;47.350;8.718;2022-12-26T03:46:16;7.36;85.12
69324;DHT22;56470;47.350;8.718;2022-12-26T03:49:11;7.33;85.05
69324;DHT22;56470;47.350;8.718;2022-12-26T03:52:23;7.28;85.02
69324;DHT22;56470;47.350;8.718;2022-12-26T03:55:16;7.21;83.80
69324;DHT22;56470;47.350;8.718;2022-12-26T04:00:53;6.87;84.43
69324;DHT22;56470;47.350;8.718;2022-12-26T04:03:39;6.76;84.76
69324;DHT22;56470;47.350;8.718;2022-12-26T04:06:28;6.70;84.94
69324;DHT22;56470;47.350;8.718;2022-12-26T04:09:21;6.67;84.95
69324;DHT22;56470;47.350;8.718;2022-12-26T04:12:13;6.66;85.21
69324;DHT22;56470;47.350;8.718;2022-12-26T04:15:00;6.65;85.36
69324;DHT22;56470;47.350;8.718;2022-12-26T04:17:53;6.63;85.24
69324;DHT22;56470;47.350;8.718;2022-12-26T04:21:15;6.67;86.41
69324;DHT22;56470;47.350;8.718;2022-12-26T04:24:05;6.77;86.58
69324;DHT22;56470;47.350;8.718;2022-12-26T04:26:53;6.94;87.28
69324;DHT22;56470;47.350;8.718;2022-12-26T04:29:38;7.01;86.44
69324;DHT22;56470;47.350;8.718;2022-12-26T04:32:32;7.08;86.44
69324;DHT22;56470;47.350;8.718;2022-12-26T04:35:35;7.16;86.35
69324;DHT22;56470;47.350;8.718;2022-12-26T04:38:23;7.19;86.42
69324;DHT22;56470;47.350;8.718;2022-12-26T04:41:11;7.26;86.37
69324;DHT22;56470;47.350;8.718;2022-12-26T04:43:58;7.35;86.49
69324;DHT22;56470;47.350;8.718;2022-12-26T04:46:32;7.41;86.62
69324;DHT22;56470;47.350;8.718;2022-12-26T04:48:58;7.48;86.44
69324;DHT22;56470;47.350;8.718;2022-12-26T04:51:42;7.56;86.38
69324;DHT22;56470;47.350;8.718;2022-12-26T04:54:08;7.59;86.46
69324;DHT22;56470;47.350;8.718;2022-12-26T04:56:33;7.60;86.40
69324;DHT22;56470;47.350;8.718;2022-12-26T04:58:59;7.62;86.41
69324;DHT22;56470;47.350;8.718;2022-12-26T05:01:24;7.70;86.24
69324;DHT22;56470;47.350;8.718;2022-12-26T05:04:13;7.70;86.38
69324;DHT22;56470;47.350;8.718;2022-12-26T05:06:57;7.67;86.63
69324;DHT22;56470;47.350;8.718;2022-12-26T05:09:41;7.69;86.73
69324;DHT22;56470;47.350;8.718;2022-12-26T05:12:08;7.67;86.86
69324;DHT22;56470;47.350;8.718;2022-12-26T05:14:34;7.67;86.91
69324;DHT22;56470;47.350;8.718;2022-12-26T05:17:04;7.69;86.91
69324;DHT22;56470;47.350;8.718;2022-12-26T05:19:48;7.73;86.85
69324;DHT22;56470;47.350;8.718;2022-12-26T05:22:33;7.81;86.87
69324;DHT22;56470;47.350;8.718;2022-12-26T05:25:20;7.90;86.71
69324;DHT22;56470;47.350;8.718;2022-12-26T05:28:08;7.98;86.77
69324;DHT22;56470;47.350;8.718;2022-12-26T05:30:53;8.09;86.53
69324;DHT22;56470;47.350;8.718;2022-12-26T05:33:18;8.12;86.14
69324;DHT22;56470;47.350;8.718;2022-12-26T05:36:02;8.11;85.66
69324;DHT22;56470;47.350;8.718;2022-12-26T05:38:28;8.15;85.62
69324;DHT22;56470;47.350;8.718;2022-12-26T05:40:53;8.16;85.56
69324;DHT22;56470;47.350;8.718;2022-12-26T05:43:18;8.22;85.56
69324;DHT22;56470;47.350;8.718;2022-12-26T05:45:44;8.28;85.45
69324;DHT22;56470;47.350;8.718;2022-12-26T05:48:09;8.35;85.45
69324;DHT22;56470;47.350;8.718;2022-12-26T05:50:34;8.39;85.32
69324;DHT22;56470;47.350;8.718;2022-12-26T05:53:00;8.40;85.18
69324;DHT22;56470;47.350;8.718;2022-12-26T05:55:25;8.48;85.31
69324;DHT22;56470;47.350;8.718;2022-12-26T05:57:51;8.48;84.97
69324;DHT22;56470;47.350;8.718;2022-12-26T06:00:16;8.39;84.06
69324;DHT22;56470;47.350;8.718;2022-12-26T06:02:42;8.36;84.03
69324;DHT22;56470;47.350;8.718;2022-12-26T06:05:07;8.32;83.99
69324;DHT22;56470;47.350;8.718;2022-12-26T06:07:33;8.21;83.88
69324;DHT22;56470;47.350;8.718;2022-12-26T06:09:58;8.18;84.17
69324;DHT22;56470;47.350;8.718;2022-12-26T06:12:23;8.15;84.42
69324;DHT22;56470;47.350;8.718;2022-12-26T06:14:49;8.20;84.52
69324;DHT22;56470;47.350;8.718;2022-12-26T06:17:14;8.21;84.56
69324;DHT22;56470;47.350;8.718;2022-12-26T06:19:39;8.25;84.47
69324;DHT22;56470;47.350;8.718;2022-12-26T06:22:05;8.29;84.61
69324;DHT22;56470;47.350;8.718;2022-12-26T06:24:30;8.31;84.32
69324;DHT22;56470;47.350;8.718;2022-12-26T06:26:55;8.32;84.29
69324;DHT22;56470;47.350;8.718;2022-12-26T06:29:21;8.29;83.83
69324;DHT22;56470;47.350;8.718;2022-12-26T06:31:46;8.25;83.77
69324;DHT22;56470;47.350;8.718;2022-12-26T06:34:12;8.21;83.81
69324;DHT22;56470;47.350;8.718;2022-12-26T06:36:37;8.15;83.43
69324;DHT22;56470;47.350;8.718;2022-12-26T06:39:02;8.08;83.38
69324;DHT22;56470;47.350;8.718;2022-12-26T06:41:28;8.05;83.43
69324;DHT22;56470;47.350;8.718;2022-12-26T06:43:54;8.01;83.33
69324;DHT22;56470;47.350;8.718;2022-12-26T06:46:22;8.05;83.55
69324;DHT22;56470;47.350;8.718;2022-12-26T06:48:48;8.06;83.51
69324;DHT22;56470;47.350;8.718;2022-12-26T06:51:19;8.15;83.57
69324;DHT22;56470;47.350;8.718;2022-12-26T06:53:45;8.20;83.54
69324;DHT22;56470;47.350;8.718;2022-12-26T06:56:13;8.22;83.46
69324;DHT22;56470;47.350;8.718;2022-12-26T06:58:39;8.25;83.50
69324;DHT22;56470;47.350;8.718;2022-12-26T07:01:06;8.24;83.19
69324;DHT22;56470;47.350;8.718;2022-12-26T07:03:31;8.24;83.25
69324;DHT22;56470;47.350;8.718;2022-12-26T07:06:03;8.21;83.10
69324;DHT22;56470;47.350;8.718;2022-12-26T07:08:28;8.21;83.23
69324;DHT22;56470;47.350;8.718;2022-12-26T07:10:53;8.21;83.43
69324;DHT22;56470;47.350;8.718;2022-12-26T07:13:19;8.18;83.28
69324;DHT22;56470;47.350;8.718;2022-12-26T07:15:44;8.18;83.15
69324;DHT22;56470;47.350;8.718;2022-12-26T07:18:09;8.15;83.12
69324;DHT22;56470;47.350;8.718;2022-12-26T07:20:36;8.12;83.11
69324;DHT22;56470;47.350;8.718;2022-12-26T07:23:01;8.11;83.02
69324;DHT22;56470;47.350;8.718;2022-12-26T07:25:27;8.09;82.92
69324;DHT22;56470;47.350;8.718;2022-12-26T07:27:52;8.09;83.17
69324;DHT22;56470;47.350;8.718;2022-12-26T07:30:18;8.11;83.33
69324;DHT22;56470;47.350;8.718;2022-12-26T07:32:43;8.16;83.59
69324;DHT22;56470;47.350;8.718;2022-12-26T07:35:08;8.24;83.60
69324;DHT22;56470;47.350;8.718;2022-12-26T07:37:34;8.26;83.12
69324;DHT22;56470;47.350;8.718;2022-12-26T07:39:59;8.26;82.77
69324;DHT22;56470;47.350;8.718;2022-12-26T07:42:25;8.18;82.38
69324;DHT22;56470;47.350;8.718;2022-12-26T07:44:50;8.06;82.42
69324;DHT22;56470;47.350;8.718;2022-12-26T07:47:15;8.02;82.68
69324;DHT22;56470;47.350;8.718;2022-12-26T07:49:41;7.99;82.85
69324;DHT22;56470;47.350;8.718;2022-12-26T07:52:06;7.98;82.69
69324;DHT22;56470;47.350;8.718;2022-12-26T07:54:31;7.99;82.84
69324;DHT22;56470;47.350;8.718;2022-12-26T07:56:57;8.01;83.29
69324;DHT22;56470;47.350;8.718;2022-12-26T07:59:22;8.04;82.75
69324;DHT22;56470;47.350;8.718;2022-12-26T08:01:48;8.09;83.29
69324;DHT22;56470;47.350;8.718;2022-12-26T08:04:13;8.15;83.32
69324;DHT22;56470;47.350;8.718;2022-12-26T08:06:38;8.22;83.45
69324;DHT22;56470;47.350;8.718;2022-12-26T08:09:04;8.26;83.45
69324;DHT22;56470;47.350;8.718;2022-12-26T08:11:32;8.35;83.31
69324;DHT22;56470;47.350;8.718;2022-12-26T08:13:58;8.40;83.26
69324;DHT22;56470;47.350;8.718;2022-12-26T08:16:23;8.48;83.25
69324;DHT22;56470;47.350;8.718;2022-12-26T08:18:48;8.52;82.50
69324;DHT22;56470;47.350;8.718;2022-12-26T08:21:14;8.49;82.00
69324;DHT22;56470;47.350;8.718;2022-12-26T08:23:40;8.45;82.14
69324;DHT22;56470;47.350;8.718;2022-12-26T08:26:07;8.48;82.36
69324;DHT22;56470;47.350;8.718;2022-12-26T08:28:33;8.49;82.02
69324;DHT22;56470;47.350;8.718;2022-12-26T08:30:58;8.53;82.16
69324;DHT22;56470;47.350;8.718;2022-12-26T08:33:24;8.59;82.43
69324;DHT22;56470;47.350;8.718;2022-12-26T08:35:49;8.63;82.38
69324;DHT22;56470;47.350;8.718;2022-12-26T08:38:14;8.70;82.44
69324;DHT22;56470;47.350;8.718;2022-12-26T08:40:40;8.80;82.12
69324;DHT22;56470;47.350;8.718;2022-12-26T08:43:05;8.94;82.06
69324;DHT22;56470;47.350;8.718;2022-12-26T08:45:31;9.04;81.78
69324;DHT22;56470;47.350;8.718;2022-12-26T08:47:57;9.14;81.64
69324;DHT22;56470;47.350;8.718;2022-12-26T08:50:24;9.21;81.32
69324;DHT22;56470;47.350;8.718;2022-12-26T08:52:49;9.26;81.10
69324;DHT22;56470;47.350;8.718;2022-12-26T08:55:15;9.33;80.73
69324;DHT22;56470;47.350;8.718;2022-12-26T08:57:40;9.43;80.75
69324;DHT22;56470;47.350;8.718;2022-12-26T09:00:06;9.50;80.45
69324;DHT22;56470;47.350;8.718;2022-12-26T09:02:32;9.58;80.21
69324;DHT22;56470;47.350;8.718;2022-12-26T09:04:57;9.66;80.10
69324;DHT22;56470;47.350;8.718;2022-12-26T09:07:22;9.74;79.80
69324;DHT22;56470;47.350;8.718;2022-12-26T09:09:49;9.91;79.87
69324;DHT22;56470;47.350;8.718;2022-12-26T09:12:14;10.03;79.19
69324;DHT22;56470;47.350;8.718;2022-12-26T09:14:39;10.11;79.32
69324;DHT22;56470;47.350;8.718;2022-12-26T09:17:05;10.12;78.77
69324;DHT22;56470;47.350;8.718;2022-12-26T09:19:30;10.19;78.95
69324;DHT22;56470;47.350;8.718;2022-12-26T09:21:57;10.23;78.76
69324;DHT22;56470;47.350;8.718;2022-12-26T09:24:42;10.37;78.88
69324;DHT22;56470;47.350;8.718;2022-12-26T09:27:07;10.42;78.89
69324;DHT22;56470;47.350;8.718;2022-12-26T09:29:33;10.50;78.89
69324;DHT22;56470;47.350;8.718;2022-12-26T09:31:58;10.53;78.88
69324;DHT22;56470;47.350;8.718;2022-12-26T09:34:24;10.65;78.75
69324;DHT22;56470;47.350;8.718;2022-12-26T09:36:49;10.65;78.27
69324;DHT22;56470;47.350;8.718;2022-12-26T09:39:15;10.73;78.40
69324;DHT22;56470;47.350;8.718;2022-12-26T09:42:03;10.74;77.51
69324;DHT22;56470;47.350;8.718;2022-12-26T09:47:31;10.78;77.75
69324;DHT22;56470;47.350;8.718;2022-12-26T09:52:49;10.68;76.89
69324;DHT22;56470;47.350;8.718;2022-12-26T09:55:26;10.70;78.00
69324;DHT22;56470;47.350;8.718;2022-12-26T09:57:57;10.68;78.71
69324;DHT22;56470;47.350;8.718;2022-12-26T10:00:27;10.71;78.63
69324;DHT22;56470;47.350;8.718;2022-12-26T10:02:56;10.71;78.57
69324;DHT22;56470;47.350;8.718;2022-12-26T10:05:27;10.71;78.55
69324;DHT22;56470;47.350;8.718;2022-12-26T10:08:00;10.67;78.46
69324;DHT22;56470;47.350;8.718;2022-12-26T10:10:55;10.68;78.48
69324;DHT22;56470;47.350;8.718;2022-12-26T10:13:42;10.67;78.48
69324;DHT22;56470;47.350;8.718;2022-12-26T10:16:17;10.70;78.90
69324;DHT22;56470;47.350;8.718;2022-12-26T10:19:10;10.68;78.75
69324;DHT22;56470;47.350;8.718;2022-12-26T10:22:04;10.71;78.66
69324;DHT22;56470;47.350;8.718;2022-12-26T10:24:33;10.73;78.77
69324;DHT22;56470;47.350;8.718;2022-12-26T10:27:02;10.70;78.73
69324;DHT22;56470;47.350;8.718;2022-12-26T10:29:34;10.70;78.81
69324;DHT22;56470;47.350;8.718;2022-12-26T10:32:05;10.70;78.89
69324;DHT22;56470;47.350;8.718;2022-12-26T10:34:44;10.70;78.91
69324;DHT22;56470;47.350;8.718;2022-12-26T10:37:25;10.70;79.12
69324;DHT22;56470;47.350;8.718;2022-12-26T10:42:45;10.70;79.21
69324;DHT22;56470;47.350;8.718;2022-12-26T10:45:16;10.71;79.19
69324;DHT22;56470;47.350;8.718;2022-12-26T10:47:51;10.68;79.32
69324;DHT22;56470;47.350;8.718;2022-12-26T10:50:23;10.70;79.48
69324;DHT22;56470;47.350;8.718;2022-12-26T10:52:49;10.71;79.56
69324;DHT22;56470;47.350;8.718;2022-12-26T10:55:17;10.75;79.83
69324;DHT22;56470;47.350;8.718;2022-12-26T10:57:46;10.77;79.98
69324;DHT22;56470;47.350;8.718;2022-12-26T11:02:43;10.81;80.19
69324;DHT22;56470;47.350;8.718;2022-12-26T11:05:11;10.85;80.20
69324;DHT22;56470;47.350;8.718;2022-12-26T11:07:40;10.88;80.35
69324;DHT22;56470;47.350;8.718;2022-12-26T11:10:20;10.91;80.57
69324;DHT22;56470;47.350;8.718;2022-12-26T11:12:51;10.94;80.48
69324;DHT22;56470;47.350;8.718;2022-12-26T11:15:23;10.97;80.51
69324;DHT22;56470;47.350;8.718;2022-12-26T11:17:52;10.98;80.61
69324;DHT22;56470;47.350;8.718;2022-12-26T11:20:27;10.99;80.77
69324;DHT22;56470;47.350;8.718;2022-12-26T11:22:53;10.99;80.92
69324;DHT22;56470;47.350;8.718;2022-12-26T11:25:20;10.97;81.11
69324;DHT22;56470;47.350;8.718;2022-12-26T11:27:49;10.95;81.22
69324;DHT22;56470;47.350;8.718;2022-12-26T11:30:28;10.94;81.39
69324;DHT22;56470;47.350;8.718;2022-12-26T11:33:22;10.90;82.11
69324;DHT22;56470;47.350;8.718;2022-12-26T11:36:09;10.92;82.10
69324;DHT22;56470;47.350;8.718;2022-12-26T11:38:51;10.91;82.15
69324;DHT22;56470;47.350;8.718;2022-12-26T11:47:09;10.85;82.90
69324;DHT22;56470;47.350;8.718;2022-12-26T11:57:58;10.77;82.79
69324;DHT22;56470;47.350;8.718;2022-12-26T12:00:27;10.74;82.96
69324;DHT22;56470;47.350;8.718;2022-12-26T12:02:53;10.73;82.94
69324;DHT22;56470;47.350;8.718;2022-12-26T12:10:45;10.70;83.98
69324;DHT22;56470;47.350;8.718;2022-12-26T12:13:33;10.67;83.98
69324;DHT22;56470;47.350;8.718;2022-12-26T12:18:50;10.64;84.09
69324;DHT22;56470;47.350;8.718;2022-12-26T12:30:14;10.63;84.62
69324;DHT22;56470;47.350;8.718;2022-12-26T12:33:14;10.61;84.68
69324;DHT22;56470;47.350;8.718;2022-12-26T12:44:14;10.61;84.77
69324;DHT22;56470;47.350;8.718;2022-12-26T12:55:15;10.53;85.22
69324;DHT22;56470;47.350;8.718;2022-12-26T12:58:04;10.54;85.85
69324;DHT22;56470;47.350;8.718;2022-12-26T13:00:54;10.49;85.93
69324;DHT22;56470;47.350;8.718;2022-12-26T13:11:11;10.49;85.02
69324;DHT22;56470;47.350;8.718;2022-12-26T13:13:42;10.45;85.11
69324;DHT22;56470;47.350;8.718;2022-12-26T13:16:21;10.42;85.44
69324;DHT22;56470;47.350;8.718;2022-12-26T13:18:52;10.46;85.27
69324;DHT22;56470;47.350;8.718;2022-12-26T13:21:20;10.45;85.33
69324;DHT22;56470;47.350;8.718;2022-12-26T13:23:55;10.45;85.45
69324;DHT22;56470;47.350;8.718;2022-12-26T13:26:44;10.45;85.44
69324;DHT22;56470;47.350;8.718;2022-12-26T13:29:15;10.42;85.45
69324;DHT22;56470;47.350;8.718;2022-12-26T13:31:43;10.46;85.50
69324;DHT22;56470;47.350;8.718;2022-12-26T13:34:19;10.46;85.73
69324;DHT22;56470;47.350;8.718;2022-12-26T13:37:02;10.45;86.13
69324;DHT22;56470;47.350;8.718;2022-12-26T13:39:32;10.47;85.50
69324;DHT22;56470;47.350;8.718;2022-12-26T13:42:16;10.47;85.95
69324;DHT22;56470;47.350;8.718;2022-12-26T13:48:02;10.46;85.68
69324;DHT22;56470;47.350;8.718;2022-12-26T13:50:57;10.50;85.72
69324;DHT22;56470;47.350;8.718;2022-12-26T13:53:33;10.47;85.60
69324;DHT22;56470;47.350;8.718;2022-12-26T13:58:59;10.45;85.97
69324;DHT22;56470;47.350;8.718;2022-12-26T14:04:36;10.46;86.64
69324;DHT22;56470;47.350;8.718;2022-12-26T14:07:37;10.46;86.40
69324;DHT22;56470;47.350;8.718;2022-12-26T14:16:00;10.37;85.99
69324;DHT22;56470;47.350;8.718;2022-12-26T14:19:00;10.33;86.59
69324;DHT22;56470;47.350;8.718;2022-12-26T14:26:45;10.29;86.25
69324;DHT22;56470;47.350;8.718;2022-12-26T14:32:01;10.26;86.69
69324;DHT22;56470;47.350;8.718;2022-12-26T14:35:04;10.23;87.37
69324;DHT22;56470;47.350;8.718;2022-12-26T14:40:36;10.28;86.77
69324;DHT22;56470;47.350;8.718;2022-12-26T14:45:38;10.30;86.93
69324;DHT22;56470;47.350;8.718;2022-12-26T14:50:52;10.32;86.86
69324;DHT22;56470;47.350;8.718;2022-12-26T14:55:50;10.35;86.78
69324;DHT22;56470;47.350;8.718;2022-12-26T15:10:04;10.22;87.17
69324;DHT22;56470;47.350;8.718;2022-12-26T15:31:43;10.29;87.46
69324;DHT22;56470;47.350;8.718;2022-12-26T15:36:54;10.16;87.37
69324;DHT22;56470;47.350;8.718;2022-12-26T15:45:24;10.11;87.31
69324;DHT22;56470;47.350;8.718;2022-12-26T15:51:24;10.16;87.27
69324;DHT22;56470;47.350;8.718;2022-12-26T16:04:53;10.67;85.26
69324;DHT22;56470;47.350;8.718;2022-12-26T16:09:52;10.73;85.12
69324;DHT22;56470;47.350;8.718;2022-12-26T16:12:29;10.75;84.71
69324;DHT22;56470;47.350;8.718;2022-12-26T16:17:36;10.80;83.93
69324;DHT22;56470;47.350;8.718;2022-12-26T16:23:14;10.78;83.45
69324;DHT22;56470;47.350;8.718;2022-12-26T16:25:48;10.73;82.48
69324;DHT22;56470;47.350;8.718;2022-12-26T16:28:14;10.64;82.15
69324;DHT22;56470;47.350;8.718;2022-12-26T16:30:41;10.64;82.44
69324;DHT22;56470;47.350;8.718;2022-12-26T16:33:06;10.63;82.57
69324;DHT22;56470;47.350;8.718;2022-12-26T16:35:35;10.61;82.47
69324;DHT22;56470;47.350;8.718;2022-12-26T16:38:03;10.57;82.24
69324;DHT22;56470;47.350;8.718;2022-12-26T16:40:31;10.54;82.35
69324;DHT22;56470;47.350;8.718;2022-12-26T16:43:04;10.54;82.51
69324;DHT22;56470;47.350;8.718;2022-12-26T16:45:32;10.49;82.28
69324;DHT22;56470;47.350;8.718;2022-12-26T16:47:59;10.49;82.53
69324;DHT22;56470;47.350;8.718;2022-12-26T16:50:27;10.50;82.79
69324;DHT22;56470;47.350;8.718;2022-12-26T16:53:12;10.47;82.80
69324;DHT22;56470;47.350;8.718;2022-12-26T16:55:48;10.49;83.14
69324;DHT22;56470;47.350;8.718;2022-12-26T17:01:11;10.45;83.27
69324;DHT22;56470;47.350;8.718;2022-12-26T17:03:38;10.43;83.43
69324;DHT22;56470;47.350;8.718;2022-12-26T17:06:11;10.42;83.45
69324;DHT22;56470;47.350;8.718;2022-12-26T17:08:45;10.39;83.52
69324;DHT22;56470;47.350;8.718;2022-12-26T17:11:11;10.40;83.59
69324;DHT22;56470;47.350;8.718;2022-12-26T17:13:37;10.40;83.56
69324;DHT22;56470;47.350;8.718;2022-12-26T17:16:06;10.45;83.61
69324;DHT22;56470;47.350;8.718;2022-12-26T17:18:44;10.47;83.64
69324;DHT22;56470;47.350;8.718;2022-12-26T17:26:29;10.40;83.26
69324;DHT22;56470;47.350;8.718;2022-12-26T17:28:54;10.37;83.43
69324;DHT22;56470;47.350;8.718;2022-12-26T17:33:48;10.43;83.28
69324;DHT22;56470;47.350;8.718;2022-12-26T17:36:15;10.45;82.94
69324;DHT22;56470;47.350;8.718;2022-12-26T17:38:42;10.43;82.85
69324;DHT22;56470;47.350;8.718;2022-12-26T17:41:09;10.47;82.96
69324;DHT22;56470;47.350;8.718;2022-12-26T17:43:38;10.49;82.55
69324;DHT22;56470;47.350;8.718;2022-12-26T17:46:05;10.53;82.82
69324;DHT22;56470;47.350;8.718;2022-12-26T17:48:32;10.53;82.41
69324;DHT22;56470;47.350;8.718;2022-12-26T17:51:00;10.54;82.64
69324;DHT22;56470;47.350;8.718;2022-12-26T17:53:28;10.57;82.54
69324;DHT22;56470;47.350;8.718;2022-12-26T17:55:59;10.61;82.41
69324;DHT22;56470;47.350;8.718;2022-12-26T17:58:26;10.60;82.20
69324;DHT22;56470;47.350;8.718;2022-12-26T18:00:52;10.56;81.44
69324;DHT22;56470;47.350;8.718;2022-12-26T18:03:17;10.56;80.93
69324;DHT22;56470;47.350;8.718;2022-12-26T18:05:43;10.56;81.13
69324;DHT22;56470;47.350;8.718;2022-12-26T18:08:30;10.53;80.59
69324;DHT22;56470;47.350;8.718;2022-12-26T18:10:57;10.52;80.62
69324;DHT22;56470;47.350;8.718;2022-12-26T18:13:23;10.47;79.70
69324;DHT22;56470;47.350;8.718;2022-12-26T18:15:50;10.45;79.49
69324;DHT22;56470;47.350;8.718;2022-12-26T18:18:35;10.43;79.29
69324;DHT22;56470;47.350;8.718;2022-12-26T18:21:02;10.45;80.14
69324;DHT22;56470;47.350;8.718;2022-12-26T18:23:28;10.43;79.87
69324;DHT22;56470;47.350;8.718;2022-12-26T18:25:59;10.40;79.20
69324;DHT22;56470;47.350;8.718;2022-12-26T18:28:24;10.46;79.72
69324;DHT22;56470;47.350;8.718;2022-12-26T18:30:49;10.43;79.13
69324;DHT22;56470;47.350;8.718;2022-12-26T18:33:15;10.42;78.86
69324;DHT22;56470;47.350;8.718;2022-12-26T18:35:41;10.42;79.07
69324;DHT22;56470;47.350;8.718;2022-12-26T18:38:12;10.45;78.86
69324;DHT22;56470;47.350;8.718;2022-12-26T18:40:40;10.43;78.57
69324;DHT22;56470;47.350;8.718;2022-12-26T18:43:07;10.45;77.95
69324;DHT22;56470;47.350;8.718;2022-12-26T18:45:33;10.40;77.61
69324;DHT22;56470;47.350;8.718;2022-12-26T18:47:59;10.43;77.65
69324;DHT22;56470;47.350;8.718;2022-12-26T18:50:25;10.45;76.96
69324;DHT22;56470;47.350;8.718;2022-12-26T18:52:51;10.47;77.57
69324;DHT22;56470;47.350;8.718;2022-12-26T18:55:16;10.40;76.44
69324;DHT22;56470;47.350;8.718;2022-12-26T18:57:42;10.42;77.13
69324;DHT22;56470;47.350;8.718;2022-12-26T19:00:11;10.39;75.87
69324;DHT22;56470;47.350;8.718;2022-12-26T19:02:37;10.37;75.67
69324;DHT22;56470;47.350;8.718;2022-12-26T19:05:02;10.36;75.49
69324;DHT22;56470;47.350;8.718;2022-12-26T19:07:29;10.42;75.95
69324;DHT22;56470;47.350;8.718;2022-12-26T19:09:54;10.40;75.73
69324;DHT22;56470;47.350;8.718;2022-12-26T19:12:22;10.45;75.94
69324;DHT22;56470;47.350;8.718;2022-12-26T19:14:48;10.46;75.76
69324;DHT22;56470;47.350;8.718;2022-12-26T19:17:14;10.49;76.34
69324;DHT22;56470;47.350;8.718;2022-12-26T19:19:39;10.50;76.26
69324;DHT22;56470;47.350;8.718;2022-12-26T19:22:05;10.53;76.50
69324;DHT22;56470;47.350;8.718;2022-12-26T19:24:30;10.49;75.33
69324;DHT22;56470;47.350;8.718;2022-12-26T19:26:58;10.54;75.61
69324;DHT22;56470;47.350;8.718;2022-12-26T19:29:23;10.57;75.15
69324;DHT22;56470;47.350;8.718;2022-12-26T19:31:48;10.54;74.60
69324;DHT22;56470;47.350;8.718;2022-12-26T19:34:14;10.56;74.92
69324;DHT22;56470;47.350;8.718;2022-12-26T19:36:39;10.56;74.17
69324;DHT22;56470;47.350;8.718;2022-12-26T19:39:05;10.52;74.24
69324;DHT22;56470;47.350;8.718;2022-12-26T19:41:30;10.54;75.14
69324;DHT22;56470;47.350;8.718;2022-12-26T19:43:57;10.52;74.47
69324;DHT22;56470;47.350;8.718;2022-12-26T19:46:23;10.50;75.32
69324;DHT22;56470;47.350;8.718;2022-12-26T19:48:49;10.50;75.15